Jandakot, Western Australia

2:56 PM AWST on September 29, 2016 (GMT +0800)
Jandakot | | Change Station

Elev 108 ft 32.10 °S, 115.85 °E | Updated 1 second ago

Clear
Clear
64.4 °F
Feels Like 64.4 °F
N
5.3
Wind Variable Wind from West
Gusts 12.1 mph

Today
High -- | Low -- °F
--% Chance of Precip.
Yesterday
High -- | Low -- °F
Precip. -- in
Pressure 30.01 in
Visibility -9999.0 miles
Clouds
Dew Point 41 °F
Humidity 43%
Rainfall 0.00 in
Snow Depth Not available.
5:56 AM 6:17 PM
Waning Crescent, 3% visible
METAR YPPH 290630Z 33005KT 290V360 CAVOK 18/03 Q1016 FM0700 23008KT CAVOK
Pressure 30.01 in
Visibility -9999.0 miles
Clouds
Dew Point 41 °F
Humidity 43%
Rainfall 0.00 in
Snow Depth Not available.
5:56 AM 6:17 PM
Waning Crescent, 3% visible
METAR YPPH 290630Z 33005KT 290V360 CAVOK 18/03 Q1016 FM0700 23008KT CAVOK

10-Day Weather Forecast

Almanac

Astronomy

Sep. 29, 2016 Rise Set
Actual Time
Civil Twilight
Nautical Twilight
Astronomical Twilight
Moon
Length of Visible Light
Length of Day
Tomorrow will be .
, % of the Moon is Illuminated

Today's Extremes

Country Highs Country Lows

Community

WunderPhotos

Upload Photos

1,942,446 photos uploaded!

WunderBlog® & News

Nearby

Air Quality

  Air Quality AQ Index Pollutant
Not available.

Snow Depth

Station Depth Elevation

Earthquake Activity

City Distance Mag. Time & Date
Minimum magnitude displayed is 2.5.

Coastal Water Temperatures

Place Temperature

Stations

Nearby Weather Stations

Station Location Temp. Windchill Dew Point Humidity Wind Precip. Elev Updated Type